Portada
METAR-TAF:

METAR-TAF

Aeropuertos :

Pemba, Mozambique

latitud: 12-59S, longitud: 040-32E, altitud: 101 m

Observación

El informe se hizo hace 59 minutos, a las 09:00 UTC
Viento 11 kt del oeste-suroeste, variando entre sur-suroeste y oeste
Temperatura 28°C
Humedad 58%
Presión 1013 hPa
Visibilidad 10 km o más
Escasas nubes a una altura de 2000 ft

METAR: FQPB 080900Z 24011KT 210V270 9999 FEW020 28/19 Q1013

Hora: 11:59 (09:59 UTC)

Pronóstico

El informe se hizo hace 5 horas y 59 minutos, a las 04:00 UTC
Pronóstico válido del 08 a las 06 UTC al 09 a las 06 UTC
Viento 8 kt del suroeste
Visibilidad 10 km o más
Escasas nubes a una altura de 2000 ft
Evolucionando progresivamente
del 08 a las 18 UTC al 08 a las 20 UTC
Viento 8 kt del sur-suroeste

TAF: FQPB 080400Z 0806/0906 23008KT 9999 FEW020 TX30/0812Z TN19/0903Z BECMG 0818/0820 20008KT

Observaciones y pronósticos meteorológicos de más de 4000 aeropuertos (mensajes METAR y TAF).

Los puntos amarillos y rojos representan las estaciones disponibles.

Ponga el ratón en el punto deseado para ver el nombre de la estación.

Haga clic para ver las observaciones y los pronósticos meteorológicos.

Para cambiar el mapa : haga clic en los botones verdes con una cruz de color negro para hacer un zoom, en el botón verde con un guión para alejar o en las flechas verdes para mapas adyacentes.


METAR-TAF: